• Join FlightAware (Why Join?)
  • Login
  • US Flag 
10:02PM EDT


 

Airport Tracker/Info


-or-


 

Live Flight TrackerFlight Track Log ✈ UAL5848 ✈ 19-Apr-2013 ✈ KORD - KTYS

Flight Track Log - Related Links

Times and Time Zones

All times are in EDT time to prevent confusion due to time zone crossing. See the UAL5848 flight status page for this flight to view local times or setup timezone preferences in your user account.

Time Position Orientation Groundspeed Altitude Reporting Facility
EDT Latitude Longitude Course Direction KTS MPH feet Rate Location/Type
07:58PM 41.8833 -87.9000 169° South 215 247 3,700  Level Chicago TRACON
08:00PM 41.7447 -87.8047 153° Southeast 273 314 7,900 1,860 Climbing Chicago Center
08:01PM 41.6744 -87.7531 151° Southeast 287 330 10,000 1,920 Climbing Chicago Center
08:02PM 41.6017 -87.7019 152° Southeast 293 337 11,900 1,560 Climbing Chicago Center
08:03PM 41.4386 -87.5297 169° South  Level Estimated
08:03PM 41.5217 -87.6603 159° South 307 353 13,200  Level Chicago Center
08:04PM 41.4142 -87.6289 168° South 327 376 14,500 1,080 Climbing Chicago Center
08:05PM 41.3183 -87.5986 167° South 346 398 15,500 960 Climbing Chicago Center
08:06PM 41.2203 -87.5683 167° South 358 412 16,600 960 Climbing Chicago Center
08:07PM 41.1222 -87.5375 167° South 361 415 17,600 1,080 Climbing Chicago Center
08:08PM 41.0222 -87.5075 167° South 366 421 18,900 1,080 Climbing Chicago Center
08:09PM 40.9217 -87.4764 167° South 369 425 19,900 960 Climbing Chicago Center
08:10PM 40.8217 -87.4461 167° South 369 425 21,000 1,080 Climbing Chicago Center
08:11PM 40.6992 -87.4083 167° South 373 429 22,200 1,080 Climbing Chicago Center
08:12PM 40.5989 -87.3783 167° South 371 427 23,300 1,020 Climbing Chicago Center
08:13PM 40.5003 -87.3486 167° South 365 420 24,300 960 Climbing Chicago Center
08:14PM 40.4083 -87.2914 155° Southeast 372 428 25,300 960 Climbing Chicago Center
08:15PM 40.3225 -87.2131 145° Southeast 376 433 26,300 960 Climbing Chicago Center
08:16PM 40.2392 -87.1347 144° Southeast 370 426 27,300 1,140 Climbing Chicago Center
08:18PM 40.1511 -87.0150 134° Southeast 381 438 28,700 1,380 Climbing Chicago Center
08:18PM 40.1233 -86.9742 132° Southeast 380 437 29,300 1,140 Climbing Indianapolis Center
08:19PM 40.0572 -86.8675 129° Southeast 376 433 30,400 1,020 Climbing Indianapolis Center
08:20PM 39.9878 -86.7717 133° Southeast 371 427 31,500 960 Climbing Indianapolis Center
08:21PM 39.9017 -86.7125 152° Southeast 353 406 32,500 960 Climbing Indianapolis Center
08:22PM 39.8183 -86.6522 151° Southeast 343 395 33,500 960 Climbing Indianapolis Center
08:23PM 39.7342 -86.5936 152° Southeast 342 394 34,500 720 Climbing Indianapolis Center
08:24PM 39.6514 -86.5358 152° Southeast 338 389 35,000 240 Climbing Indianapolis Center
08:25PM 39.5633 -86.4744 152° Southeast 351 404 35,000  Level Indianapolis Center
08:26PM 39.4694 -86.4086 152° Southeast 375 432 35,000  Level Indianapolis Center
08:27PM 39.3731 -86.3414 152° Southeast 388 447 35,000  Level Indianapolis Center
08:28PM 39.2483 -86.2928 163° South 384 442 35,000  Level Indianapolis Center
08:29PM 39.1419 -86.2508 163° South 394 453 35,000  Level Indianapolis Center
08:30PM 39.0383 -86.2111 163° South 387 445 35,000  Level Indianapolis Center
08:31PM 38.9369 -86.1683 162° South 381 438 35,000  Level Indianapolis Center
08:32PM 38.8386 -86.0969 151° Southeast 401 461 35,000  Level Indianapolis Center
08:33PM 38.7425 -86.0269 150° Southeast 397 457 35,000  Level Indianapolis Center
08:34PM 38.6442 -85.9550 150° Southeast 400 460 35,000  Level Indianapolis Center
08:35PM 38.5467 -85.8839 150° Southeast 401 461 35,000  Level Indianapolis Center
08:36PM 38.4458 -85.8114 151° Southeast 408 470 35,000  Level Indianapolis Center
08:37PM 38.3456 -85.7394 151° Southeast 410 472 35,000  Level Indianapolis Center
08:38PM 38.2428 -85.6664 151° Southeast 418 481 35,000  Level Indianapolis Center
08:39PM 38.1406 -85.5947 151° Southeast 416 479 35,000 -240 Level Indianapolis Center
08:40PM 38.0192 -85.5081 151° Southeast 415 478 34,600 -1,080 Descending Indianapolis Center
08:42PM 37.9231 -85.4397 151° Southeast 399 459 32,900 -1,500 Descending Indianapolis Center
08:43PM 37.8342 -85.3761 151° Southeast 369 425 31,600 -960 Descending Indianapolis Center
08:44PM 37.7444 -85.3122 151° Southeast 362 417 31,000 -300 Descending Indianapolis Center
08:45PM 37.6550 -85.2492 151° Southeast 366 421 31,000  Level Indianapolis Center
08:46PM 37.5656 -85.1889 152° Southeast 364 419 31,000 -300 Level Indianapolis Center
08:47PM 37.4756 -85.1239 150° Southeast 368 423 30,500 -960 Descending Indianapolis Center
08:48PM 37.3808 -85.0600 152° Southeast 381 438 29,100 -1,380 Descending Indianapolis Center
08:49PM 37.2897 -84.9956 151° Southeast 378 435 27,700 -1,680 Descending Indianapolis Center
08:50PM 37.1800 -84.9206 151° Southeast 382 440 25,800 -1,740 Descending Indianapolis Center
08:51PM 37.0861 -84.8558 151° Southeast 385 443 24,200 -1,500 Descending Indianapolis Center
08:52PM 37.0025 -84.7972 151° Southeast 390 449 22,800 -1,500 Descending Indianapolis Center
08:53PM 36.9072 -84.7322 151° Southeast 390 449 21,200 -1,800 Descending Indianapolis Center
08:54PM 36.7906 -84.6531 151° Southeast 396 456 19,200 -1,800 Descending Indianapolis Center
08:55PM 36.6939 -84.5878 152° Southeast 393 452 17,600 -1,620 Descending Indianapolis Center
08:56PM 36.5975 -84.5217 151° Southeast 394 453 15,900 -1,620 Descending Indianapolis Center
08:57PM 36.4994 -84.4558 152° Southeast 397 457 14,300 -1,620 Descending Indianapolis Center
08:58PM 36.4069 -84.3925 151° Southeast 383 441 12,700 -1,320 Descending Indianapolis Center
08:59PM 36.3175 -84.3333 152° Southeast 367 422 11,700 -780 Descending Indianapolis Center
08:59PM 36.2958 -84.3194 153° Southeast 378 435 11,700 -480 Level Atlanta Center
09:00PM 36.2061 -84.2625 153° Southeast 371 427 11,100 -480 Descending Atlanta Center
09:01PM 36.1228 -84.2058 151° Southeast 363 418 10,800 -900 Descending Atlanta Center
09:02PM 36.0542 -84.1594 151° Southeast 325 374 9,400 -1,740 Descending Atlanta Center
09:03PM 35.9872 -84.1131 151° Southeast 297 342 7,400 -1,740 Descending Atlanta Center
09:04PM 35.9247 -84.0592 145° Southeast 285 328 6,000 -1,260 Descending Atlanta Center
09:05PM 35.9269 -83.9772 88° East 228 262 4,900 -1,260 Descending Atlanta Center
09:06PM 35.9100 -83.9156 109° East 205 236 3,500 -1,440 Descending Atlanta Center
09:08PM 35.8000 -83.9833 141° Southeast  Level FlightAware Approximate
09:15PM 35.8110 -83.9940 141° Southeast  Level Estimated
09:16PM 35.8110 -83.9940 141° Southeast  Level Estimated
09:17PM 35.8110 -83.9940 141° Southeast  Level Estimated